Sur, Oman
Current Conditions -  °F | °C
As of 9:50 PM on Sunday 23 Nov 2014 (Local Time) from OOMS Reporting Station
Clear Clear  
Wind Chill: 77°   Ceiling: Unl
Heat Index: 79°   Visibility: 6mi
Dew Point: 59°   Wind: 3mph
Humidity: 54%   Direction: 240°WSW
Pressure: 29.94"   Gusts: NA
Location:  22.57°N, 59.55°E
Report Text: OOMS 231750Z 24003KT 190V260 CAVOK 25/15 Q1014 NOSIG RMK00RH55?
Loading
Personal Weather Stations






























Interactive Weather Map New forecast layout! Learn more

10-Day Weather Forecast

Advertisements
Track Severe Weather on mobile